sensor_id;sensor_type;location;lat;lon;timestamp;pressure;altitude;pressure_sealevel;temperature;humidity
21290;BME280;10804;48.988;2.408;2023-08-31T00:00:41;100450.72;;;19.17;55.71
21290;BME280;10804;48.988;2.408;2023-08-31T00:03:10;100474.72;;;19.28;55.74
21290;BME280;10804;48.988;2.408;2023-08-31T00:05:37;100474.25;;;19.22;55.85
21290;BME280;10804;48.988;2.408;2023-08-31T00:08:06;100430.28;;;18.93;55.76
21290;BME280;10804;48.988;2.408;2023-08-31T00:10:34;100461.50;;;19.14;55.83
21290;BME280;10804;48.988;2.408;2023-08-31T00:13:02;100475.94;;;19.23;55.70
21290;BME280;10804;48.988;2.408;2023-08-31T00:15:30;100478.69;;;19.21;55.89
21290;BME280;10804;48.988;2.408;2023-08-31T00:17:58;100486.72;;;19.20;55.90
21290;BME280;10804;48.988;2.408;2023-08-31T00:20:27;100482.34;;;19.19;55.87
21290;BME280;10804;48.988;2.408;2023-08-31T00:22:56;100478.19;;;19.15;55.87
21290;BME280;10804;48.988;2.408;2023-08-31T00:25:24;100486.13;;;19.15;55.86
21290;BME280;10804;48.988;2.408;2023-08-31T00:27:52;100477.44;;;19.13;55.81
21290;BME280;10804;48.988;2.408;2023-08-31T00:30:20;100485.97;;;19.04;55.90
21290;BME280;10804;48.988;2.408;2023-08-31T00:32:51;100486.53;;;19.09;55.88
21290;BME280;10804;48.988;2.408;2023-08-31T00:35:21;100482.19;;;19.08;55.90
21290;BME280;10804;48.988;2.408;2023-08-31T00:37:50;100466.44;;;19.06;55.97
21290;BME280;10804;48.988;2.408;2023-08-31T00:40:18;100472.66;;;19.05;55.90
21290;BME280;10804;48.988;2.408;2023-08-31T00:42:45;100464.84;;;19.04;55.90
21290;BME280;10804;48.988;2.408;2023-08-31T00:45:13;100465.78;;;19.03;55.99
21290;BME280;10804;48.988;2.408;2023-08-31T00:47:41;100466.72;;;19.02;55.95
21290;BME280;10804;48.988;2.408;2023-08-31T00:50:09;100470.31;;;19.01;56.05
21290;BME280;10804;48.988;2.408;2023-08-31T00:52:37;100466.91;;;18.99;56.02
21290;BME280;10804;48.988;2.408;2023-08-31T00:55:06;100456.72;;;18.93;56.01
21290;BME280;10804;48.988;2.408;2023-08-31T00:57:34;100460.78;;;18.98;55.94
21290;BME280;10804;48.988;2.408;2023-08-31T01:00:05;100448.06;;;18.91;56.01
21290;BME280;10804;48.988;2.408;2023-08-31T01:05:33;100454.84;;;18.95;56.05
21290;BME280;10804;48.988;2.408;2023-08-31T01:08:15;100437.03;;;18.84;56.17
21290;BME280;10804;48.988;2.408;2023-08-31T01:10:56;100459.38;;;18.93;55.97
21290;BME280;10804;48.988;2.408;2023-08-31T01:13:25;100463.91;;;18.91;56.07
21290;BME280;10804;48.988;2.408;2023-08-31T01:15:56;100463.06;;;18.90;56.15
21290;BME280;10804;48.988;2.408;2023-08-31T01:18:26;100468.44;;;18.89;56.07
21290;BME280;10804;48.988;2.408;2023-08-31T01:21:02;100466.00;;;18.86;56.26
21290;BME280;10804;48.988;2.408;2023-08-31T01:23:47;100469.41;;;18.88;56.17
21290;BME280;10804;48.988;2.408;2023-08-31T01:26:16;100477.50;;;18.85;56.17
21290;BME280;10804;48.988;2.408;2023-08-31T01:28:44;100484.59;;;18.84;56.24
21290;BME280;10804;48.988;2.408;2023-08-31T01:31:11;100474.41;;;18.78;56.20
21290;BME280;10804;48.988;2.408;2023-08-31T01:33:39;100483.09;;;18.80;56.10
21290;BME280;10804;48.988;2.408;2023-08-31T01:36:14;100476.09;;;18.79;56.10
21290;BME280;10804;48.988;2.408;2023-08-31T01:38:48;100491.13;;;18.79;56.23
21290;BME280;10804;48.988;2.408;2023-08-31T01:41:19;100493.84;;;18.77;56.20
21290;BME280;10804;48.988;2.408;2023-08-31T01:43:47;100484.31;;;18.75;56.31
21290;BME280;10804;48.988;2.408;2023-08-31T01:46:16;100494.06;;;18.74;56.19
21290;BME280;10804;48.988;2.408;2023-08-31T01:48:43;100483.59;;;18.73;56.14
21290;BME280;10804;48.988;2.408;2023-08-31T01:51:11;100486.31;;;18.71;56.07
21290;BME280;10804;48.988;2.408;2023-08-31T01:53:39;100482.84;;;18.71;56.32
21290;BME280;10804;48.988;2.408;2023-08-31T01:56:08;100484.69;;;18.69;56.36
21290;BME280;10804;48.988;2.408;2023-08-31T01:58:37;100478.59;;;18.68;56.33
21290;BME280;10804;48.988;2.408;2023-08-31T02:01:04;100475.09;;;18.68;56.38
21290;BME280;10804;48.988;2.408;2023-08-31T02:03:31;100469.06;;;18.66;56.29
21290;BME280;10804;48.988;2.408;2023-08-31T02:06:00;100477.84;;;18.66;56.37
21290;BME280;10804;48.988;2.408;2023-08-31T02:08:27;100470.00;;;18.65;56.29
21290;BME280;10804;48.988;2.408;2023-08-31T02:10:54;100470.00;;;18.65;56.21
21290;BME280;10804;48.988;2.408;2023-08-31T02:13:24;100476.22;;;18.64;56.31
21290;BME280;10804;48.988;2.408;2023-08-31T02:15:51;100470.94;;;18.64;56.28
21290;BME280;10804;48.988;2.408;2023-08-31T02:18:19;100474.53;;;18.63;56.24
21290;BME280;10804;48.988;2.408;2023-08-31T02:20:47;100473.03;;;18.59;56.34
21290;BME280;10804;48.988;2.408;2023-08-31T02:23:14;100479.91;;;18.61;56.35
21290;BME280;10804;48.988;2.408;2023-08-31T02:25:42;100469.34;;;18.61;56.29
21290;BME280;10804;48.988;2.408;2023-08-31T02:28:09;100470.19;;;18.62;56.28
21290;BME280;10804;48.988;2.408;2023-08-31T02:30:38;100465.00;;;18.60;56.34
21290;BME280;10804;48.988;2.408;2023-08-31T02:33:06;100467.75;;;18.59;56.50
21290;BME280;10804;48.988;2.408;2023-08-31T02:35:33;100468.59;;;18.59;56.31
21290;BME280;10804;48.988;2.408;2023-08-31T02:38:00;100473.97;;;18.58;56.33
21290;BME280;10804;48.988;2.408;2023-08-31T02:40:28;100478.31;;;18.59;56.27
21290;BME280;10804;48.988;2.408;2023-08-31T02:42:55;100466.88;;;18.58;56.38
21290;BME280;10804;48.988;2.408;2023-08-31T02:45:23;100472.16;;;18.58;56.22
21290;BME280;10804;48.988;2.408;2023-08-31T02:47:52;100476.59;;;18.58;56.38
21290;BME280;10804;48.988;2.408;2023-08-31T02:50:19;100474.91;;;18.57;56.36
21290;BME280;10804;48.988;2.408;2023-08-31T02:52:47;100473.97;;;18.58;56.40
21290;BME280;10804;48.988;2.408;2023-08-31T02:55:14;100467.94;;;18.56;56.37
21290;BME280;10804;48.988;2.408;2023-08-31T02:57:42;100473.22;;;18.56;56.53
21290;BME280;10804;48.988;2.408;2023-08-31T03:00:10;100484.63;;;18.56;56.28
21290;BME280;10804;48.988;2.408;2023-08-31T03:02:39;100471.69;;;18.52;56.24
21290;BME280;10804;48.988;2.408;2023-08-31T03:05:08;100470.59;;;18.56;56.34
21290;BME280;10804;48.988;2.408;2023-08-31T03:07:35;100472.38;;;18.55;56.27
21290;BME280;10804;48.988;2.408;2023-08-31T03:10:03;100467.94;;;18.56;56.43
21290;BME280;10804;48.988;2.408;2023-08-31T03:12:30;100466.25;;;18.55;56.33
21290;BME280;10804;48.988;2.408;2023-08-31T03:14:58;100471.53;;;18.55;56.38
21290;BME280;10804;48.988;2.408;2023-08-31T03:17:26;100463.78;;;18.52;56.23
21290;BME280;10804;48.988;2.408;2023-08-31T03:19:53;100456.59;;;18.54;56.47
21290;BME280;10804;48.988;2.408;2023-08-31T03:22:22;100460.09;;;18.54;56.32
21290;BME280;10804;48.988;2.408;2023-08-31T03:24:49;100460.97;;;18.55;56.27
21290;BME280;10804;48.988;2.408;2023-08-31T03:27:16;100459.25;;;18.54;56.30
21290;BME280;10804;48.988;2.408;2023-08-31T03:29:45;100475.94;;;18.54;56.35
21290;BME280;10804;48.988;2.408;2023-08-31T03:32:12;100456.81;;;18.51;56.35
21290;BME280;10804;48.988;2.408;2023-08-31T03:34:39;100461.88;;;18.54;56.33
21290;BME280;10804;48.988;2.408;2023-08-31T03:37:07;100450.56;;;18.52;56.40
21290;BME280;10804;48.988;2.408;2023-08-31T03:39:37;100445.22;;;18.53;56.38
21290;BME280;10804;48.988;2.408;2023-08-31T03:42:07;100455.69;;;18.55;56.38
21290;BME280;10804;48.988;2.408;2023-08-31T03:44:35;100452.28;;;18.53;56.35
21290;BME280;10804;48.988;2.408;2023-08-31T03:47:03;100457.56;;;18.53;56.31
21290;BME280;10804;48.988;2.408;2023-08-31T03:49:31;100458.41;;;18.53;56.34
21290;BME280;10804;48.988;2.408;2023-08-31T03:51:59;100458.41;;;18.53;56.33
21290;BME280;10804;48.988;2.408;2023-08-31T03:54:27;100452.28;;;18.53;56.27
21290;BME280;10804;48.988;2.408;2023-08-31T03:56:56;100459.25;;;18.54;56.27
21290;BME280;10804;48.988;2.408;2023-08-31T03:59:23;100458.41;;;18.53;56.30
21290;BME280;10804;48.988;2.408;2023-08-31T04:01:51;100455.84;;;18.52;56.31
21290;BME280;10804;48.988;2.408;2023-08-31T04:04:19;100452.28;;;18.53;56.13
21290;BME280;10804;48.988;2.408;2023-08-31T04:06:46;100454.91;;;18.53;56.33
21290;BME280;10804;48.988;2.408;2023-08-31T04:09:14;100449.63;;;18.53;56.28
21290;BME280;10804;48.988;2.408;2023-08-31T04:11:41;100459.34;;;18.52;56.25
21290;BME280;10804;48.988;2.408;2023-08-31T04:14:10;100459.34;;;18.52;56.29
21290;BME280;10804;48.988;2.408;2023-08-31T04:16:37;100453.22;;;18.52;56.32
21290;BME280;10804;48.988;2.408;2023-08-31T04:19:04;100455.03;;;18.51;56.25
21290;BME280;10804;48.988;2.408;2023-08-31T04:21:32;100455.03;;;18.51;56.25
21290;BME280;10804;48.988;2.408;2023-08-31T04:23:59;100461.34;;;18.49;56.48
21290;BME280;10804;48.988;2.408;2023-08-31T04:26:26;100458.50;;;18.52;56.20
21290;BME280;10804;48.988;2.408;2023-08-31T04:28:55;100456.81;;;18.51;56.16
21290;BME280;10804;48.988;2.408;2023-08-31T04:31:24;100458.50;;;18.52;56.13
21290;BME280;10804;48.988;2.408;2023-08-31T04:33:51;100459.44;;;18.51;56.23
21290;BME280;10804;48.988;2.408;2023-08-31T04:36:20;100464.72;;;18.51;56.31
21290;BME280;10804;48.988;2.408;2023-08-31T04:38:48;100468.22;;;18.51;56.30
21290;BME280;10804;48.988;2.408;2023-08-31T04:41:16;100461.34;;;18.49;56.22
21290;BME280;10804;48.988;2.408;2023-08-31T04:43:43;100469.06;;;18.52;56.22
21290;BME280;10804;48.988;2.408;2023-08-31T04:46:13;100472.66;;;18.51;56.23
21290;BME280;10804;48.988;2.408;2023-08-31T04:48:42;100470.88;;;18.51;56.37
21290;BME280;10804;48.988;2.408;2023-08-31T04:51:27;100476.97;;;18.52;56.18
21290;BME280;10804;48.988;2.408;2023-08-31T04:53:54;100476.16;;;18.51;56.26
21290;BME280;10804;48.988;2.408;2023-08-31T04:56:21;100489.44;;;18.50;56.25
21290;BME280;10804;48.988;2.408;2023-08-31T04:58:49;100482.47;;;18.49;56.24
21290;BME280;10804;48.988;2.408;2023-08-31T05:01:16;100479.72;;;18.50;56.20
21290;BME280;10804;48.988;2.408;2023-08-31T05:03:45;100477.94;;;18.51;56.12
21290;BME280;10804;48.988;2.408;2023-08-31T05:06:12;100485.84;;;18.51;56.15
21290;BME280;10804;48.988;2.408;2023-08-31T05:08:39;100489.44;;;18.50;56.21
21290;BME280;10804;48.988;2.408;2023-08-31T05:11:07;100489.44;;;18.50;56.24
21290;BME280;10804;48.988;2.408;2023-08-31T05:13:35;100484.16;;;18.50;56.17
21290;BME280;10804;48.988;2.408;2023-08-31T05:16:03;100485.00;;;18.50;56.23
21290;BME280;10804;48.988;2.408;2023-08-31T05:18:31;100484.25;;;18.48;56.29
21290;BME280;10804;48.988;2.408;2023-08-31T05:20:59;100488.59;;;18.49;56.29
21290;BME280;10804;48.988;2.408;2023-08-31T05:23:27;100482.47;;;18.49;56.15
21290;BME280;10804;48.988;2.408;2023-08-31T05:25:54;100491.34;;;18.48;56.17
21290;BME280;10804;48.988;2.408;2023-08-31T05:28:22;100485.13;;;18.49;56.22
21290;BME280;10804;48.988;2.408;2023-08-31T05:30:50;100490.47;;;18.47;56.06
21290;BME280;10804;48.988;2.408;2023-08-31T05:33:18;100491.34;;;18.48;56.19
21290;BME280;10804;48.988;2.408;2023-08-31T05:35:46;100500.97;;;18.49;56.09
21290;BME280;10804;48.988;2.408;2023-08-31T05:38:14;100502.75;;;18.48;56.23
21290;BME280;10804;48.988;2.408;2023-08-31T05:40:42;100499.34;;;18.46;56.29
21290;BME280;10804;48.988;2.408;2023-08-31T05:43:12;100498.69;;;18.43;56.24
21290;BME280;10804;48.988;2.408;2023-08-31T05:45:39;100499.25;;;18.48;56.17
21290;BME280;10804;48.988;2.408;2023-08-31T05:48:07;100507.19;;;18.48;56.10
21290;BME280;10804;48.988;2.408;2023-08-31T05:50:34;100506.31;;;18.47;56.31
21290;BME280;10804;48.988;2.408;2023-08-31T05:53:03;100511.59;;;18.47;56.06
21290;BME280;10804;48.988;2.408;2023-08-31T05:55:32;100510.66;;;18.48;56.17
21290;BME280;10804;48.988;2.408;2023-08-31T05:57:59;100507.28;;;18.46;56.08
21290;BME280;10804;48.988;2.408;2023-08-31T06:00:28;100513.38;;;18.47;56.24
21290;BME280;10804;48.988;2.408;2023-08-31T06:02:55;100517.75;;;18.48;56.10
21290;BME280;10804;48.988;2.408;2023-08-31T06:05:23;100523.03;;;18.48;56.18
21290;BME280;10804;48.988;2.408;2023-08-31T06:07:50;100517.75;;;18.48;56.20
21290;BME280;10804;48.988;2.408;2023-08-31T06:10:18;100530.84;;;18.49;56.19
21290;BME280;10804;48.988;2.408;2023-08-31T06:12:47;100515.94;;;18.48;56.13
21290;BME280;10804;48.988;2.408;2023-08-31T06:15:15;100515.84;;;18.50;56.19
21290;BME280;10804;48.988;2.408;2023-08-31T06:17:42;100517.75;;;18.48;56.17
21290;BME280;10804;48.988;2.408;2023-08-31T06:20:11;100522.91;;;18.49;56.08
21290;BME280;10804;48.988;2.408;2023-08-31T06:22:38;100522.84;;;18.51;56.25
21290;BME280;10804;48.988;2.408;2023-08-31T06:25:06;100521.13;;;18.50;56.22
21290;BME280;10804;48.988;2.408;2023-08-31T06:27:34;100524.53;;;18.52;56.09
21290;BME280;10804;48.988;2.408;2023-08-31T06:30:04;100520.09;;;18.52;56.27
21290;BME280;10804;48.988;2.408;2023-08-31T06:32:33;100526.22;;;18.53;56.16
21290;BME280;10804;48.988;2.408;2023-08-31T06:35:00;100524.53;;;18.52;56.11
21290;BME280;10804;48.988;2.408;2023-08-31T06:37:29;100531.63;;;18.51;56.29
21290;BME280;10804;48.988;2.408;2023-08-31T06:39:57;100531.50;;;18.53;56.10
21290;BME280;10804;48.988;2.408;2023-08-31T06:42:24;100528.78;;;18.54;56.15
21290;BME280;10804;48.988;2.408;2023-08-31T06:44:52;100530.38;;;18.57;56.04
21290;BME280;10804;48.988;2.408;2023-08-31T06:47:20;100527.75;;;18.57;56.20
21290;BME280;10804;48.988;2.408;2023-08-31T06:49:48;100527.75;;;18.57;56.12
21290;BME280;10804;48.988;2.408;2023-08-31T06:52:15;100532.00;;;18.59;56.03
21290;BME280;10804;48.988;2.408;2023-08-31T06:54:43;100538.97;;;18.60;56.13
21290;BME280;10804;48.988;2.408;2023-08-31T06:57:10;100537.16;;;18.61;56.08
21290;BME280;10804;48.988;2.408;2023-08-31T06:59:38;100544.13;;;18.62;56.03
21290;BME280;10804;48.988;2.408;2023-08-31T07:02:05;100542.28;;;18.64;56.01
21290;BME280;10804;48.988;2.408;2023-08-31T07:04:34;100546.53;;;18.66;56.11
21290;BME280;10804;48.988;2.408;2023-08-31T07:07:01;100541.13;;;18.68;55.89
21290;BME280;10804;48.988;2.408;2023-08-31T07:09:29;100555.09;;;18.70;56.09
21290;BME280;10804;48.988;2.408;2023-08-31T07:11:56;100553.22;;;18.72;55.86
21290;BME280;10804;48.988;2.408;2023-08-31T07:14:24;100561.03;;;18.73;55.89
21290;BME280;10804;48.988;2.408;2023-08-31T07:16:52;100550.38;;;18.75;55.98
21290;BME280;10804;48.988;2.408;2023-08-31T07:19:19;100560.00;;;18.76;56.00
21290;BME280;10804;48.988;2.408;2023-08-31T07:21:48;100553.69;;;18.78;55.96
21290;BME280;10804;48.988;2.408;2023-08-31T07:24:15;100550.09;;;18.79;55.75
21290;BME280;10804;48.988;2.408;2023-08-31T07:26:42;100558.75;;;18.81;55.68
21290;BME280;10804;48.988;2.408;2023-08-31T07:29:09;100555.22;;;18.82;55.88
21290;BME280;10804;48.988;2.408;2023-08-31T07:31:37;100561.16;;;18.86;55.72
21290;BME280;10804;48.988;2.408;2023-08-31T07:34:04;100567.19;;;18.88;55.82
21290;BME280;10804;48.988;2.408;2023-08-31T07:36:32;100564.53;;;18.88;55.67
21290;BME280;10804;48.988;2.408;2023-08-31T07:39:01;100562.66;;;18.90;55.73
21290;BME280;10804;48.988;2.408;2023-08-31T07:41:29;100565.19;;;18.91;55.80
21290;BME280;10804;48.988;2.408;2023-08-31T07:43:56;100565.09;;;18.93;55.80
21290;BME280;10804;48.988;2.408;2023-08-31T07:46:24;100562.25;;;18.96;55.86
21290;BME280;10804;48.988;2.408;2023-08-31T07:48:52;100569.03;;;19.00;55.81
21290;BME280;10804;48.988;2.408;2023-08-31T07:51:19;100569.81;;;19.02;55.76
21290;BME280;10804;48.988;2.408;2023-08-31T07:53:49;100568.88;;;19.03;55.64
21290;BME280;10804;48.988;2.408;2023-08-31T07:56:17;100577.34;;;19.08;55.84
21290;BME280;10804;48.988;2.408;2023-08-31T07:58:45;100572.91;;;19.08;55.78
21290;BME280;10804;48.988;2.408;2023-08-31T08:01:12;100573.56;;;19.12;55.67
21290;BME280;10804;48.988;2.408;2023-08-31T08:03:39;100573.38;;;19.15;55.60
21290;BME280;10804;48.988;2.408;2023-08-31T08:06:07;100573.19;;;19.18;55.64
21290;BME280;10804;48.988;2.408;2023-08-31T08:08:34;100573.97;;;19.20;55.64
21290;BME280;10804;48.988;2.408;2023-08-31T08:11:01;100571.13;;;19.23;55.62
21290;BME280;10804;48.988;2.408;2023-08-31T08:13:31;100571.03;;;19.24;55.62
21290;BME280;10804;48.988;2.408;2023-08-31T08:15:58;100574.34;;;19.28;55.66
21290;BME280;10804;48.988;2.408;2023-08-31T08:18:25;100581.31;;;19.29;55.61
21290;BME280;10804;48.988;2.408;2023-08-31T08:20:53;100575.00;;;19.31;55.59
21290;BME280;10804;48.988;2.408;2023-08-31T08:23:20;100565.06;;;19.35;55.42
21290;BME280;10804;48.988;2.408;2023-08-31T08:25:49;100571.00;;;19.38;55.56
21290;BME280;10804;48.988;2.408;2023-08-31T08:28:16;100569.19;;;19.39;55.67
21290;BME280;10804;48.988;2.408;2023-08-31T08:30:45;100576.94;;;19.42;55.52
21290;BME280;10804;48.988;2.408;2023-08-31T08:33:12;100562.78;;;19.43;55.67
21290;BME280;10804;48.988;2.408;2023-08-31T08:35:40;100568.94;;;19.43;55.54
21290;BME280;10804;48.988;2.408;2023-08-31T08:38:07;100577.53;;;19.47;55.40
21290;BME280;10804;48.988;2.408;2023-08-31T08:40:34;100578.25;;;19.49;55.43
21290;BME280;10804;48.988;2.408;2023-08-31T08:43:06;100581.66;;;19.51;55.39
21290;BME280;10804;48.988;2.408;2023-08-31T08:45:36;100574.56;;;19.51;55.42
21290;BME280;10804;48.988;2.408;2023-08-31T08:48:07;100588.44;;;19.55;55.44
21290;BME280;10804;48.988;2.408;2023-08-31T08:50:35;100582.22;;;19.56;55.34
21290;BME280;10804;48.988;2.408;2023-08-31T08:53:03;100583.91;;;19.57;55.29
21290;BME280;10804;48.988;2.408;2023-08-31T08:55:32;100582.94;;;19.58;55.38
21290;BME280;10804;48.988;2.408;2023-08-31T08:58:00;100583.81;;;19.58;55.37
21290;BME280;10804;48.988;2.408;2023-08-31T09:00:29;100578.31;;;19.61;55.40
21290;BME280;10804;48.988;2.408;2023-08-31T09:02:57;100585.22;;;19.64;55.38
21290;BME280;10804;48.988;2.408;2023-08-31T09:05:26;100588.59;;;19.66;55.36
21290;BME280;10804;48.988;2.408;2023-08-31T09:08:01;100579.69;;;19.67;55.35
21290;BME280;10804;48.988;2.408;2023-08-31T09:10:33;100582.16;;;19.70;55.34
21290;BME280;10804;48.988;2.408;2023-08-31T09:13:04;100583.88;;;19.71;55.30
21290;BME280;10804;48.988;2.408;2023-08-31T09:15:42;100584.59;;;19.73;55.38
21290;BME280;10804;48.988;2.408;2023-08-31T09:18:16;100576.44;;;19.76;55.35
21290;BME280;10804;48.988;2.408;2023-08-31T09:20:51;100576.44;;;19.76;55.26
21290;BME280;10804;48.988;2.408;2023-08-31T09:23:19;100578.91;;;19.79;55.23
21290;BME280;10804;48.988;2.408;2023-08-31T09:25:49;100579.66;;;19.81;55.31
21290;BME280;10804;48.988;2.408;2023-08-31T09:28:19;100576.91;;;19.82;55.25
21290;BME280;10804;48.988;2.408;2023-08-31T09:30:48;100568.22;;;19.80;55.12
21290;BME280;10804;48.988;2.408;2023-08-31T09:33:17;100577.56;;;19.86;55.21
21290;BME280;10804;48.988;2.408;2023-08-31T09:35:48;100583.59;;;19.88;55.21
21290;BME280;10804;48.988;2.408;2023-08-31T09:38:18;100578.31;;;19.88;55.22
21290;BME280;10804;48.988;2.408;2023-08-31T09:40:46;100584.34;;;19.90;55.27
21290;BME280;10804;48.988;2.408;2023-08-31T09:43:19;100574.78;;;19.87;55.19
21290;BME280;10804;48.988;2.408;2023-08-31T09:45:48;100569.97;;;19.94;55.15
21290;BME280;10804;48.988;2.408;2023-08-31T09:48:16;100563.81;;;19.93;55.20
21290;BME280;10804;48.988;2.408;2023-08-31T09:50:44;100565.50;;;19.94;55.19
21290;BME280;10804;48.988;2.408;2023-08-31T09:53:12;100563.50;;;19.98;55.08
21290;BME280;10804;48.988;2.408;2023-08-31T09:55:41;100575.78;;;19.98;55.12
21290;BME280;10804;48.988;2.408;2023-08-31T09:58:11;100571.25;;;20.01;55.21
21290;BME280;10804;48.988;2.408;2023-08-31T10:00:38;100571.03;;;20.03;55.13
21290;BME280;10804;48.988;2.408;2023-08-31T10:03:06;100566.59;;;20.04;55.00
21290;BME280;10804;48.988;2.408;2023-08-31T10:05:34;100573.50;;;20.07;55.05
21290;BME280;10804;48.988;2.408;2023-08-31T10:08:02;100566.31;;;20.09;55.05
21290;BME280;10804;48.988;2.408;2023-08-31T10:10:29;100562.72;;;20.10;55.12
21290;BME280;10804;48.988;2.408;2023-08-31T10:12:59;100560.06;;;20.10;55.09
21290;BME280;10804;48.988;2.408;2023-08-31T10:15:31;100557.22;;;20.13;55.01
21290;BME280;10804;48.988;2.408;2023-08-31T10:18:00;100552.22;;;20.08;54.91
21290;BME280;10804;48.988;2.408;2023-08-31T10:20:29;100556.25;;;20.13;55.00
21290;BME280;10804;48.988;2.408;2023-08-31T10:22:58;100558.81;;;20.15;55.09
21290;BME280;10804;48.988;2.408;2023-08-31T10:26:04;100559.53;;;20.17;55.00
21290;BME280;10804;48.988;2.408;2023-08-31T10:28:41;100558.50;;;20.19;55.05
21290;BME280;10804;48.988;2.408;2023-08-31T10:31:09;100562.84;;;20.20;55.01
21290;BME280;10804;48.988;2.408;2023-08-31T10:33:41;100567.16;;;20.21;54.97
21290;BME280;10804;48.988;2.408;2023-08-31T10:36:11;100560.00;;;20.23;55.04
21290;BME280;10804;48.988;2.408;2023-08-31T10:38:39;100564.34;;;20.24;55.00
21290;BME280;10804;48.988;2.408;2023-08-31T10:41:20;100557.13;;;20.26;55.06
21290;BME280;10804;48.988;2.408;2023-08-31T10:43:51;100559.69;;;20.28;54.93
21290;BME280;10804;48.988;2.408;2023-08-31T10:46:26;100558.19;;;20.24;54.98
21290;BME280;10804;48.988;2.408;2023-08-31T10:48:55;100563.06;;;20.30;54.96
21290;BME280;10804;48.988;2.408;2023-08-31T10:51:28;100558.63;;;20.30;55.00
21290;BME280;10804;48.988;2.408;2023-08-31T10:54:09;100555.03;;;20.31;55.02
21290;BME280;10804;48.988;2.408;2023-08-31T10:57:03;100556.72;;;20.32;55.04
21290;BME280;10804;48.988;2.408;2023-08-31T10:59:48;100551.28;;;20.34;55.05
21290;BME280;10804;48.988;2.408;2023-08-31T11:02:28;100546.84;;;20.34;54.93
21290;BME280;10804;48.988;2.408;2023-08-31T11:04:59;100539.78;;;20.35;54.93
21290;BME280;10804;48.988;2.408;2023-08-31T11:07:27;100535.31;;;20.35;54.78
21290;BME280;10804;48.988;2.408;2023-08-31T11:10:08;100539.56;;;20.38;55.05
21290;BME280;10804;48.988;2.408;2023-08-31T11:12:35;100535.09;;;20.38;55.07
21290;BME280;10804;48.988;2.408;2023-08-31T11:15:05;100537.75;;;20.38;55.05
21290;BME280;10804;48.988;2.408;2023-08-31T11:17:33;100527.03;;;20.40;55.04
21290;BME280;10804;48.988;2.408;2023-08-31T11:20:01;100522.69;;;20.39;54.99
21290;BME280;10804;48.988;2.408;2023-08-31T11:22:31;100524.28;;;20.41;55.02
21290;BME280;10804;48.988;2.408;2023-08-31T11:24:59;100518.91;;;20.43;55.06
21290;BME280;10804;48.988;2.408;2023-08-31T11:27:26;100526.72;;;20.44;55.00
21290;BME280;10804;48.988;2.408;2023-08-31T11:29:54;100524.06;;;20.44;55.07
21290;BME280;10804;48.988;2.408;2023-08-31T11:32:24;100529.38;;;20.44;55.05
21290;BME280;10804;48.988;2.408;2023-08-31T11:34:51;100523.13;;;20.45;55.08
21290;BME280;10804;48.988;2.408;2023-08-31T11:37:19;100525.78;;;20.45;55.03
21290;BME280;10804;48.988;2.408;2023-08-31T11:39:50;100523.13;;;20.45;55.05
21290;BME280;10804;48.988;2.408;2023-08-31T11:42:19;100530.13;;;20.46;55.14
21290;BME280;10804;48.988;2.408;2023-08-31T11:44:48;100539.88;;;20.46;55.08
21290;BME280;10804;48.988;2.408;2023-08-31T11:47:16;100535.44;;;20.46;55.04
21290;BME280;10804;48.988;2.408;2023-08-31T11:49:46;100543.38;;;20.46;55.01
21290;BME280;10804;48.988;2.408;2023-08-31T11:52:15;100537.22;;;20.46;55.00
21290;BME280;10804;48.988;2.408;2023-08-31T11:54:42;100534.88;;;20.41;54.96
21290;BME280;10804;48.988;2.408;2023-08-31T11:57:10;100531.09;;;20.45;54.95
21290;BME280;10804;48.988;2.408;2023-08-31T11:59:38;100535.44;;;20.46;55.06
21290;BME280;10804;48.988;2.408;2023-08-31T12:02:06;100529.16;;;20.47;54.98
21290;BME280;10804;48.988;2.408;2023-08-31T12:04:42;100532.78;;;20.46;55.06
21290;BME280;10804;48.988;2.408;2023-08-31T12:07:12;100523.00;;;20.47;54.98
21290;BME280;10804;48.988;2.408;2023-08-31T12:09:43;100525.66;;;20.47;55.02
21290;BME280;10804;48.988;2.408;2023-08-31T12:12:13;100528.31;;;20.47;55.02
21290;BME280;10804;48.988;2.408;2023-08-31T12:14:40;100545.06;;;20.47;55.08
21290;BME280;10804;48.988;2.408;2023-08-31T12:17:08;100550.38;;;20.47;54.97
21290;BME280;10804;48.988;2.408;2023-08-31T12:19:37;100545.06;;;20.47;55.04
21290;BME280;10804;48.988;2.408;2023-08-31T12:22:05;100550.38;;;20.47;55.07
21290;BME280;10804;48.988;2.408;2023-08-31T12:24:40;100551.31;;;20.46;55.10
21290;BME280;10804;48.988;2.408;2023-08-31T12:27:08;100547.72;;;20.47;55.12
21290;BME280;10804;48.988;2.408;2023-08-31T12:29:36;100545.16;;;20.46;55.06
21290;BME280;10804;48.988;2.408;2023-08-31T12:32:03;100549.63;;;20.45;55.11
21290;BME280;10804;48.988;2.408;2023-08-31T12:34:31;100541.69;;;20.45;55.04
21290;BME280;10804;48.988;2.408;2023-08-31T12:36:58;100547.91;;;20.44;55.09
21290;BME280;10804;48.988;2.408;2023-08-31T12:39:27;100548.78;;;20.45;55.06
21290;BME280;10804;48.988;2.408;2023-08-31T12:41:55;100553.22;;;20.44;55.12
21290;BME280;10804;48.988;2.408;2023-08-31T12:44:22;100553.22;;;20.44;55.17
21290;BME280;10804;48.988;2.408;2023-08-31T12:46:51;100547.91;;;20.44;55.17
21290;BME280;10804;48.988;2.408;2023-08-31T12:49:19;100546.13;;;20.45;55.16
21290;BME280;10804;48.988;2.408;2023-08-31T12:51:47;100546.22;;;20.43;55.13
21290;BME280;10804;48.988;2.408;2023-08-31T12:54:16;100543.56;;;20.43;55.11
21290;BME280;10804;48.988;2.408;2023-08-31T12:56:43;100541.88;;;20.42;55.22
21290;BME280;10804;48.988;2.408;2023-08-31T12:59:12;100531.28;;;20.42;55.21
21290;BME280;10804;48.988;2.408;2023-08-31T13:01:39;100528.72;;;20.41;55.24